Spriggs Payne Airport

Jump to: basic info | weather | frequencies | runways | comments

Related pages: nearby airports | nearby navaids | notams | map

Basic information (top)

Codes: MLW GLMR
Location: lon 6.289060, lat -10.758700, elev 25 ft / 8 m msl
Status: medium_airport
Scheduled airline service: yes
Links: Wikipedia Mobile

Weather (top)

Current conditions for Roberts International Airport 24nm (44km) E (rec'd 2014/11/27 01:30Z):

GLRB 270130Z 00000KT 8000 SCT012 25/24 Q1011 NOSIG

Airport forecast for Roberts International Airport 24nm (44km) E (rec'd 2014/11/27 00:03Z):

TAF TAF GLRB 262200Z 2700/2806 18010KT 9000 BKN014 FEW025 CB 
      TEMPO 2701/2705 00000KT 9999 
      BECMG 2706/2708 17006KT 9000 BKN015 
      TEMPO 2709/2714 26010KT 8000 RA BKN017 FEW027CB

Frequencies (top)

Verify before use: may be inaccurate or out of date.

APP: 124.5 MHz (ROBERTS APP)
TWR: 118.7 MHz (SPRIGGS TWR)

Runways (top)

05/23: 6,000 x 100 ft (1,829 x 30 m) — paved — lighted — threshold 05 displaced 200 ft (61 m) — threshold 23 displaced 200 ft (61 m)

Latest comments (top)

No comments yet for Spriggs Payne Airport

More... (top)

See also NOTAMs and nearby airports and navaids, or visit the Spriggs Payne Airport page at the main OurAirports website..